• Join FlightAware (Why Join?)
  • Login
  • US Flag 
09:38PM EDT


 

Airport Tracker/Info


-or-


 

Live Flight TrackerFlight Track Log ✈ SKW5162 ✈ 22-May-2013 ✈ KPIT - KIAH

Flight Track Log - Related Links

Times and Time Zones

All times are in EDT time to prevent confusion due to time zone crossing. See the SKW5162 flight status page for this flight to view local times or setup timezone preferences in your user account.

Time Position Orientation Groundspeed Altitude Reporting Facility
EDT Latitude Longitude Course Direction KTS MPH feet Rate Location/Type
06:18AM 40.4983 -80.3592 267° West 201 231 3,700  Level Cleveland Center
06:19AM 40.4667 -80.6291 270° West  Level FlightAware Approximate
06:19AM 40.4922 -80.4411 264° West 201 231 5,900  Level Cleveland Center
06:20AM 40.4667 -80.7674 270° West  Level FlightAware Approximate
06:20AM 40.4903 -80.5339 268° West 230 265 8,400  Level Cleveland Center
06:21AM 40.4667 -80.9056 270° West  Level FlightAware Approximate
06:21AM 40.4861 -80.6294 267° West 252 290 10,300  Level Cleveland Center
06:22AM 40.4667 -81.0439 270° West  Level FlightAware Approximate
06:22AM 40.4797 -80.7358 266° West 291 335 11,200  Level Cleveland Center
06:23AM 40.4640 -81.1821 267° West  Level FlightAware Approximate
06:23AM 40.4711 -80.8586 265° West 322 371 12,900  Level Cleveland Center
06:24AM 40.4708 -80.9869 270° West 345 397 14,500 1,500 Climbing Cleveland Center
06:25AM 40.4703 -81.1208 270° West 361 415 16,000 1,620 Climbing Cleveland Center
06:27AM 40.4642 -81.4375 269° West 376 433 19,800 1,620 Climbing Indianapolis Center
06:28AM 40.4639 -81.5767 270° West 377 434 21,400 1,260 Climbing Indianapolis Center
06:29AM 40.4619 -81.7186 269° West 384 442 22,400 1,020 Climbing Indianapolis Center
06:30AM 40.4608 -81.8664 269° West 397 457 23,500 1,020 Climbing Indianapolis Center
06:31AM 40.4489 -82.0133 264° West 407 468 24,500 960 Climbing Indianapolis Center
06:32AM 40.3967 -82.1467 243° Southwest 410 472 25,500 960 Climbing Indianapolis Center
06:33AM 40.3431 -82.2806 242° Southwest 411 473 26,500 960 Climbing Indianapolis Center
06:34AM 40.2886 -82.4156 242° Southwest 413 475 27,500 900 Climbing Indianapolis Center
06:35AM 40.2417 -82.5303 242° Southwest 414 476 28,400 840 Climbing Indianapolis Center
06:36AM 40.1864 -82.6656 242° Southwest 417 480 29,300 840 Climbing Indianapolis Center
06:37AM 40.1311 -82.8006 242° Southwest 419 482 30,100 780 Climbing Indianapolis Center
06:38AM 40.0758 -82.9358 242° Southwest 418 481 30,900 780 Climbing Indianapolis Center
06:39AM 40.0192 -83.0719 242° Southwest 422 486 31,700 840 Climbing Indianapolis Center
06:40AM 39.9636 -83.2064 242° Southwest 420 483 32,600 780 Climbing Indianapolis Center
06:41AM 39.9078 -83.3425 242° Southwest 423 487 33,400 780 Climbing Indianapolis Center
06:42AM 39.8506 -83.4792 241° Southwest 421 484 34,200 840 Climbing Indianapolis Center
06:43AM 39.7900 -83.6208 241° Southwest 417 480 35,100 840 Climbing Indianapolis Center
06:44AM 39.7364 -83.7489 241° Southwest 405 466 35,900 420 Climbing Indianapolis Center
06:45AM 39.6822 -83.8769 241° Southwest 401 461 36,000  Climbing Indianapolis Center
06:46AM 39.6264 -84.0094 241° Southwest 412 474 36,000  Level Indianapolis Center
06:47AM 39.5681 -84.1447 241° Southwest 423 487 36,000  Level Indianapolis Center
06:48AM 39.5103 -84.2814 241° Southwest 428 493 36,000 300 Level Indianapolis Center
06:49AM 39.4525 -84.4147 241° Southwest 424 488 36,700 660 Climbing Indianapolis Center
06:50AM 39.3956 -84.5458 241° Southwest 415 478 37,400 600 Climbing Indianapolis Center
06:51AM 39.3406 -84.6725 241° Southwest 403 464 38,000 240 Climbing Indianapolis Center
06:52AM 39.2853 -84.7994 241° Southwest 402 463 38,000  Level Indianapolis Center
06:53AM 39.2314 -84.9231 241° Southwest 405 466 38,000  Level Indianapolis Center
06:54AM 39.1742 -85.0528 240° Southwest 414 476 38,000  Level Indianapolis Center
06:55AM 39.1161 -85.1833 240° Southwest 419 482 38,000  Level Indianapolis Center
06:56AM 39.0581 -85.3147 240° Southwest 422 486 38,000  Level Indianapolis Center
06:57AM 38.9986 -85.4478 240° Southwest 426 490 38,000  Level Indianapolis Center
06:58AM 38.9392 -85.5794 240° Southwest 427 491 38,000  Level Indianapolis Center
06:59AM 38.8797 -85.7131 240° Southwest 429 494 38,000  Level Indianapolis Center
07:00AM 38.8194 -85.8456 240° Southwest 429 494 38,000  Level Indianapolis Center
07:01AM 38.7500 -85.9994 240° Southwest 430 495 38,000  Level Indianapolis Center
07:02AM 38.6892 -86.1311 239° Southwest 429 494 38,000  Level Indianapolis Center
07:03AM 38.6300 -86.2631 240° Southwest 426 490 38,000  Level Indianapolis Center
07:04AM 38.5689 -86.3950 239° Southwest 427 491 38,000  Level Indianapolis Center
07:05AM 38.5097 -86.5250 240° Southwest 424 488 38,000  Level Indianapolis Center
07:06AM 38.4458 -86.6519 237° Southwest 423 487 38,000  Level Indianapolis Center
07:07AM 38.3819 -86.7772 237° Southwest 419 482 38,000  Level Indianapolis Center
07:08AM 38.3175 -86.9011 236° Southwest 415 478 38,000  Level Indianapolis Center
07:09AM 38.2542 -87.0275 237° Southwest 418 481 38,000  Level Indianapolis Center
07:10AM 38.1914 -87.1508 237° Southwest 416 479 38,000  Level Indianapolis Center
07:11AM 38.1222 -87.2825 236° Southwest 416 479 38,000  Level Indianapolis Center
07:12AM 38.0592 -87.4053 237° Southwest 414 476 38,000  Level Indianapolis Center
07:13AM 37.9953 -87.5272 236° Southwest 413 475 38,000  Level Indianapolis Center
07:14AM 37.9319 -87.6489 237° Southwest 412 474 38,000  Level Indianapolis Center
07:15AM 37.8678 -87.7703 236° Southwest 412 474 38,000  Level Indianapolis Center
07:16AM 37.8047 -87.8906 236° Southwest 410 472 38,000  Level Indianapolis Center
07:17AM 37.7328 -88.0267 236° Southwest 413 475 38,000  Level Indianapolis Center
07:18AM 37.6681 -88.1481 236° Southwest 413 475 38,000  Level Indianapolis Center
07:19AM 37.6111 -88.2547 236° Southwest 415 478 38,000  Level Indianapolis Center
07:20AM 37.5417 -88.3692 233° Southwest 410 472 38,000  Level Indianapolis Center
07:21AM 37.4539 -88.4889 227° Southwest 409 471 38,000  Level Indianapolis Center
07:23AM 37.3725 -88.6011 228° Southwest 407 468 38,000  Level Indianapolis Center
07:23AM 37.3144 -88.6931 232° Southwest 411 473 38,000  Level Memphis Center
07:24AM 37.2408 -88.7961 228° Southwest 406 467 38,000  Level Memphis Center
07:25AM 37.1650 -88.9019 228° Southwest 406 467 38,000  Level Memphis Center
07:26AM 37.0892 -89.0047 227° Southwest 406 467 38,000  Level Memphis Center
07:27AM 37.0153 -89.1097 229° Southwest 406 467 38,000  Level Memphis Center
07:28AM 36.9392 -89.2122 227° Southwest 406 467 38,000  Level Memphis Center
07:29AM 36.8628 -89.3169 228° Southwest 406 467 38,000  Level Memphis Center
07:30AM 36.7886 -89.4217 229° Southwest 406 467 38,000  Level Memphis Center
07:31AM 36.7122 -89.5261 228° Southwest 406 467 38,000  Level Memphis Center
07:32AM 36.6358 -89.6303 228° Southwest 406 467 38,000  Level Memphis Center
07:33AM 36.5572 -89.7344 227° Southwest 411 473 38,000  Level Memphis Center
07:34AM 36.4806 -89.8331 226° Southwest 411 473 38,000  Level Memphis Center
07:35AM 36.4058 -89.9342 227° Southwest 411 473 38,000  Level Memphis Center
07:36AM 36.3311 -90.0350 227° Southwest 406 467 38,000  Level Memphis Center
07:37AM 36.2564 -90.1356 227° Southwest 400 460 38,000  Level Memphis Center
07:38AM 36.1836 -90.2336 227° Southwest 395 455 38,000  Level Memphis Center
07:39AM 36.1086 -90.3314 227° Southwest 395 455 38,000  Level Memphis Center
07:40AM 36.0356 -90.4264 226° Southwest 395 455 38,000  Level Memphis Center
07:41AM 35.9647 -90.5211 227° Southwest 395 455 38,000  Level Memphis Center
07:42AM 35.8914 -90.6158 226° Southwest 395 455 38,000  Level Memphis Center
07:43AM 35.8203 -90.7103 227° Southwest 395 455 38,000  Level Memphis Center
07:44AM 35.7492 -90.8047 227° Southwest 395 455 38,000  Level Memphis Center
07:45AM 35.6717 -90.9117 228° Southwest 389 448 38,000  Level Memphis Center
07:46AM 35.5981 -91.0081 227° Southwest 382 440 38,000  Level Memphis Center
07:47AM 35.5267 -91.0994 226° Southwest 382 440 38,000  Level Memphis Center
07:48AM 35.4553 -91.1931 227° Southwest 376 433 38,000  Level Memphis Center
07:49AM 35.3919 -91.2689 224° Southwest 367 422 38,000  Level Memphis Center
07:50AM 35.3225 -91.3572 226° Southwest 367 422 38,000  Level Memphis Center
07:51AM 35.2531 -91.4478 227° Southwest 372 428 38,000  Level Memphis Center
07:52AM 35.1833 -91.5358 226° Southwest 366 421 38,000  Level Memphis Center
07:53AM 35.1136 -91.6264 227° Southwest 371 427 38,000  Level Memphis Center
07:54AM 35.0439 -91.7114 225° Southwest 366 421 38,000  Level Memphis Center
07:55AM 34.9781 -91.8042 229° Southwest 371 427 38,000  Level Memphis Center
07:56AM 34.9061 -91.8917 225° Southwest 371 427 38,000  Level Memphis Center
07:57AM 34.8342 -91.9814 226° Southwest 371 427 38,000  Level Memphis Center
07:58AM 34.7683 -92.0661 227° Southwest 365 420 38,000  Level Memphis Center
07:59AM 34.6919 -92.1531 223° Southwest 370 426 38,000  Level Memphis Center
08:00AM 34.5953 -92.1964 200° South 365 420 38,000  Level Memphis Center
08:01AM 34.4928 -92.2119 187° South 360 414 38,000  Level Memphis Center
08:02AM 34.3883 -92.2347 190° South 372 428 38,000  Level Memphis Center
08:03AM 34.2836 -92.2525 188° South 377 434 38,000  Level Memphis Center
08:06AM 34.0483 -92.3000 189° South 372 428 38,000  Level Fort Worth Center
08:07AM 33.9406 -92.3214 189° South 392 451 38,000  Level Fort Worth Center
08:08AM 33.8350 -92.3400 188° South 392 451 38,000  Level Fort Worth Center
08:09AM 33.7250 -92.3564 187° South 392 451 38,000  Level Fort Worth Center
08:10AM 33.6153 -92.3778 189° South 392 451 38,000  Level Fort Worth Center
08:11AM 33.5097 -92.3964 188° South 392 451 38,000  Level Fort Worth Center
08:12AM 33.3978 -92.4175 189° South 399 459 38,000  Level Fort Worth Center
08:13AM 33.3025 -92.4353 189° South 399 459 38,000  Level Fort Worth Center
08:14AM 33.1947 -92.4539 188° South 399 459 38,000  Level Fort Worth Center
08:15AM 33.0808 -92.4750 189° South 412 474 38,000  Level Fort Worth Center
08:16AM 32.9689 -92.4936 188° South 412 474 38,000  Level Fort Worth Center
08:17AM 32.7742 -92.5336 190° South 409 471 38,000  Level Houston Center
08:18AM 32.6625 -92.5522 188° South 409 471 38,000  Level Houston Center
08:19AM 32.5511 -92.5725 189° South 411 473 38,000  Level Houston Center
08:20AM 32.4383 -92.5928 189° South 413 475 38,000  Level Houston Center
08:21AM 32.3233 -92.6153 189° South 415 478 38,100  Climbing Houston Center
08:22AM 32.1858 -92.6372 188° South 420 483 38,000 -60 Descending Houston Center
08:23AM 32.0706 -92.6564 188° South 419 482 38,000  Level Houston Center
08:25AM 31.9600 -92.6928 196° South 418 481 38,000  Level Houston Center
08:26AM 31.8686 -92.7719 216° Southwest 410 472 38,000  Level Houston Center
08:27AM 31.7828 -92.8614 222° Southwest 410 472 38,000  Level Houston Center
08:28AM 31.6942 -92.9458 219° Southwest 411 473 38,000  Level Houston Center
08:29AM 31.6067 -93.0331 220° Southwest 412 474 38,000  Level Houston Center
08:30AM 31.5181 -93.1175 219° Southwest 411 473 38,000  Level Houston Center
08:31AM 31.4114 -93.2200 219° Southwest 414 476 38,000  Level Houston Center
08:32AM 31.3147 -93.2839 209° Southwest 414 476 38,000 -540 Level Houston Center
08:33AM 31.1956 -93.2819 179° South 417 480 36,900 -1,140 Descending Houston Center
08:34AM 31.0806 -93.2717 176° South 415 478 35,700 -1,320 Descending Houston Center
08:35AM 30.9608 -93.2681 179° South 420 483 34,200 -1,740 Descending Houston Center
08:36AM 30.8578 -93.3286 207° Southwest 432 497 32,200 -1,980 Descending Houston Center
08:37AM 30.7867 -93.4342 232° Southwest 421 484 30,200 -2,040 Descending Houston Center
08:38AM 30.7131 -93.5528 234° Southwest 383 441 28,100 -1,860 Descending Houston Center
08:39AM 30.6558 -93.6425 233° Southwest 354 407 26,400 -1,620 Descending Houston Center
08:40AM 30.6008 -93.7283 233° Southwest 337 388 24,800 -1,680 Descending Houston Center
08:41AM 30.5447 -93.8172 234° Southwest 343 395 23,000 -1,800 Descending Houston Center
08:42AM 30.4842 -93.9131 234° Southwest 363 418 21,200 -2,100 Descending Houston Center
08:42AM 30.4453 -93.9756 234° Southwest 382 440 19,900 -2,340 Descending Houston Center
08:43AM 30.4117 -94.0272 233° Southwest 371 427 18,800 -1,980 Descending Houston Center
08:44AM 30.3550 -94.1161 234° Southwest 352 405 16,800 -1,860 Descending Houston Center
08:45AM 30.3014 -94.2011 234° Southwest 330 380 15,000 -1,680 Descending Houston Center
08:46AM 30.2481 -94.2836 233° Southwest 322 371 13,400 -1,500 Descending Houston Center
08:47AM 30.1983 -94.3731 237° Southwest 328 377 12,000 -1,320 Descending Houston Center
08:48AM 30.1792 -94.4692 257° West 307 353 10,700 -1,320 Descending Houston Center
08:49AM 30.1639 -94.5633 259° West 277 319 9,300 -1,260 Descending Houston Center
08:50AM 30.1500 -94.6447 259° West 262 302 8,200 -1,080 Descending Houston Center
08:51AM 30.1353 -94.7297 259° West 270 311 7,200 -900 Descending Houston Center
08:52AM 30.1147 -94.8467 259° West 268 308 6,300 -600 Descending Houston Center
08:53AM 30.1053 -94.9136 261° West 263 303 6,000 -180 Descending Houston Center
08:54AM 30.1064 -94.9969 271° West 260 299 6,000  Level Houston Center
08:55AM 30.1072 -95.0800 271° West 260 299 6,000  Level Houston Center
08:56AM 30.1075 -95.1575 270° West 247 284 6,000  Level Houston Center
08:57AM 30.1069 -95.2306 270° West 232 267 6,000  Level Houston Center
08:58AM 30.1069 -95.3144 270° West 220 253 6,000  Level Houston Center
08:59AM 30.1067 -95.3889 270° West 223 257 6,100 -300 Climbing Houston Center
09:01AM 30.1069 -95.4611 270° West 225 259 5,500 -900 Descending Houston Center
09:02AM 30.1069 -95.5314 270° West 224 258 4,300 -1,200 Descending Houston Center
09:03AM 30.1069 -95.6014 270° West 211 243 3,100 -660 Descending Houston Center
09:04AM 30.1072 -95.6761 270° West 215 247 3,000 -60 Descending Houston Center
09:05AM 30.1006 -95.7458 264° West 218 251 3,000  Level Houston Center
09:06AM 30.0450 -95.7558 189° South 211 243 3,000  Level Houston Center
09:07AM 30.0072 -95.7072 132° Southeast 222 255 3,000  Level Houston Center
09:08AM 30.0050 -95.6467 92° East 201 231 3,000  Level Houston Center
09:09AM 30.0069 -95.5867 88° East 178 205 3,000  Level Houston Center
09:10AM 30.0058 -95.5289 91° East 183 211 3,000 -540 Level Houston Center
09:11AM 30.0067 -95.4683 89° East 176 203 2,000 -1,020 Descending Houston Center